Weather reports worldwide

Advertisment
Kahler Asten, Germany (10427): temperature & dewpoint: 09.12.2018 07:00:00 - 15.12.2018 07:00:00 (CET)Kahler Asten, Germany (10427): temperature 5cm & temperature -5cm: 09.12.2018 07:00:00 - 15.12.2018 07:00:00 (CET)Kahler Asten, Germany (10427): temperature -20cm & temperature -100cm: 09.12.2018 07:00:00 - 15.12.2018 07:00:00 (CET)Kahler Asten, Germany (10427): wind speed & gusts: 09.12.2018 07:00:00 - 15.12.2018 07:00:00 (CET)Kahler Asten, Germany (10427): wind direction: 09.12.2018 07:00:00 - 15.12.2018 07:00:00 (CET)Kahler Asten, Germany (10427): visibility: 09.12.2018 07:00:00 - 15.12.2018 07:00:00 (CET)Kahler Asten, Germany (10427): sunshine duration: 09.12.2018 07:00:00 - 15.12.2018 07:00:00 (CET)Kahler Asten, Germany (10427): precipitation: 09.12.2018 07:00:00 - 15.12.2018 07:00:00 (CET)
Date & Time tt [°C] td [°C] tt 5cm [°C] tt -5cm [°C] tt -20cm [°C] tt -100cm [°C] ff [km/h] ff [kn] fx [km/h] fx [kn] dd vv [km] sd [min] rr [mm]
15.12.2018 07:00:00 - - - - - - - - - - - - - -
15.12.2018 06:00:00 -6,2 -8,5 -3,3 0,3 1,3 4,9 17 9 27 15 SE 13 0 0,0
15.12.2018 05:00:00 -6,1 -8,5 -3,3 0,3 1,3 4,9 13 7 26 14 SE 16 0 0,0
15.12.2018 04:00:00 -6,0 -8,6 -3,3 0,3 1,3 4,9 18 10 25 14 SE 15 0 0,0
15.12.2018 03:00:00 -5,8 -8,3 -3,3 0,3 1,3 4,9 15 8 28 15 SE 16 0 0,0
15.12.2018 02:00:00 -5,9 -8,5 -3,3 0,3 1,3 5,0 16 9 29 16 SE 16 0 0,0
15.12.2018 01:00:00 -5,9 -8,6 -3,3 0,3 1,3 5,0 23 12 33 18 ESE 17 0 0,0
15.12.2018 00:00:00 -5,9 -8,8 -3,4 0,3 1,3 5,0 17 9 32 17 ESE 18 0 0,0
14.12.2018 23:00:00 -5,9 -8,8 -3,4 0,3 1,3 5,0 21 11 32 17 ESE 20 0 0,0
14.12.2018 22:00:00 -5,9 -8,8 -3,4 0,3 1,3 5,0 15 8 33 18 ESE 20 0 0,0
14.12.2018 21:00:00 -5,8 -8,8 -3,3 0,3 1,3 5,0 21 12 38 20 ESE 21 0 0,0
14.12.2018 20:00:00 -5,8 -8,8 -3,3 0,3 1,3 5,0 22 12 38 21 ESE 20 0 0,0
14.12.2018 19:00:00 -5,8 -8,8 -3,3 0,3 1,3 5,0 23 12 45 25 ESE 20 0 0,0
14.12.2018 18:00:00 -5,9 -9,0 -3,2 0,4 1,3 5,0 24 13 45 24 E 21 0 0,0
14.12.2018 17:00:00 -5,8 -8,6 -3,1 0,4 1,3 5,0 20 11 37 20 E 24 0 0,0
14.12.2018 16:00:00 -5,7 -8,6 -2,9 0,4 1,3 5,0 23 12 42 23 E 25 0 0,0
14.12.2018 15:00:00 -5,4 -8,3 -2,6 0,4 1,3 5,0 22 12 49 26 E 23 0 0,0
14.12.2018 14:00:00 -5,1 -8,0 -2,5 0,4 1,3 5,0 23 13 47 26 E 18 0 0,0
14.12.2018 13:00:00 -5,1 -7,7 -2,5 0,4 1,3 5,0 18 10 42 23 E 19 0 0,0
14.12.2018 12:00:00 -5,2 -7,7 -2,6 0,4 1,3 5,0 23 13 46 25 E 19 0 0,0
14.12.2018 11:00:00 -5,3 -8,3 -2,7 0,4 1,3 5,0 31 17 53 28 E 16 0 0,0
14.12.2018 10:00:00 -5,3 -8,0 -2,8 0,4 1,3 5,0 29 16 49 26 E 12 0 0,0
14.12.2018 09:00:00 -5,4 -8,0 -2,9 0,4 1,3 5,0 27 15 57 31 E 21 0 0,0
14.12.2018 08:00:00 -5,2 -7,5 -2,9 0,4 1,3 5,0 26 14 52 28 E 17 0 0,0
14.12.2018 07:00:00 -5,0 -7,2 -3,2 0,3 1,3 5,0 28 15 52 28 E 19 0 0,0
14.12.2018 06:00:00 -4,9 -6,9 -3,0 0,3 1,3 5,0 27 14 50 27 E 14 0 0,0
14.12.2018 05:00:00 -4,9 -6,7 -3,0 0,3 1,3 5,0 23 13 49 26 E 13 0 0,0
14.12.2018 04:00:00 -4,9 -7,2 -2,9 0,3 1,3 5,0 31 17 53 29 E 19 0 0,0
14.12.2018 03:00:00 -5,1 -7,3 -3,0 0,3 1,3 5,0 31 17 51 28 E 21 0 0,0
14.12.2018 02:00:00 -5,1 -7,3 -2,8 0,4 1,3 5,0 29 15 51 28 E 19 0 0,0
14.12.2018 01:00:00 -5,1 -6,9 -2,6 0,4 1,3 5,1 29 16 51 28 E 18 0 0,0
14.12.2018 00:00:00 -4,8 -6,4 -2,3 0,4 1,3 5,1 28 15 51 27 E 15 0 0,0
13.12.2018 23:00:00 -4,4 -5,6 -2,4 0,4 1,3 5,1 25 14 46 25 E 2,3 0 0,0
13.12.2018 22:00:00 -4,5 -5,8 -2,4 0,4 1,3 5,1 22 12 46 25 E 6 0 0,0
13.12.2018 21:00:00 -4,5 -5,8 -2,4 0,4 1,3 5,1 22 12 43 23 E 4,8 0 0,0
13.12.2018 20:00:00 -4,6 -6,2 -2,3 0,4 1,3 5,1 25 14 51 27 E 12 0 0,0
13.12.2018 19:00:00 -4,6 -5,9 -2,3 0,4 1,4 5,1 22 12 50 27 E 6 0 0,0
13.12.2018 18:00:00 -4,5 -5,9 -2,2 0,4 1,4 5,1 22 12 45 25 ENE 8 0 0,0
13.12.2018 17:00:00 -4,4 -5,8 -2,4 0,4 1,4 5,1 18 10 35 19 ENE 7 0 0,0
13.12.2018 16:00:00 -4,7 -6,6 -2,5 0,4 1,4 5,1 21 11 42 23 E 15 12 0,0
13.12.2018 15:00:00 -4,5 -6,8 -2,1 0,4 1,4 5,1 20 11 46 25 ENE 18 28 0,0
13.12.2018 14:00:00 -4,6 -6,8 -2,0 0,5 1,4 5,1 26 14 50 27 E 13 50 0,0
13.12.2018 13:00:00 -4,9 -6,5 -1,9 0,5 1,4 5,1 21 11 40 21 E 11 22 0,0
13.12.2018 12:00:00 -4,9 -6,2 -1,7 0,4 1,4 5,1 21 11 41 22 E 5 1 0,0
13.12.2018 11:00:00 -5,3 -6,7 -2,2 0,4 1,4 5,1 22 12 46 25 E 6 0 0,0
13.12.2018 10:00:00 -5,4 -6,9 -2,3 0,4 1,4 5,1 23 12 44 24 E 2,8 0 0,0
13.12.2018 09:00:00 -5,2 -6,5 -2,4 0,4 1,4 5,1 22 12 42 23 E 3,6 0 0,0
13.12.2018 08:00:00 -4,9 -6,3 -2,5 0,4 1,4 5,1 22 12 40 21 E 4,6 0 0,0
13.12.2018 07:00:00 -4,7 -6,1 -2,5 0,4 1,4 5,1 22 12 42 23 E 6 0 0,0
13.12.2018 06:00:00 -4,4 -5,7 -2,3 0,4 1,4 5,1 19 10 40 22 E 6 0 0,0
13.12.2018 05:00:00 -4,0 -5,3 -1,8 0,4 1,4 5,1 24 13 44 24 E 8 0 0,0
13.12.2018 04:00:00 -3,6 -5,0 -1,8 0,5 1,4 5,1 21 12 41 22 E 22 0 0,6
13.12.2018 03:00:00 -2,8 -3,9 -1,6 0,5 1,4 5,2 18 10 38 21 E 0,4 0 0,1
13.12.2018 02:00:00 -2,8 -4,0 -1,3 0,5 1,4 5,2 22 12 41 22 E 21 0 0,0
13.12.2018 01:00:00 -2,3 -3,4 -1,1 0,5 1,4 5,2 23 12 37 20 E 2,3 0 0,0
13.12.2018 00:00:00 -2,3 -3,4 -1,1 0,5 1,4 5,2 18 10 40 21 ENE 13 0 0,0
12.12.2018 23:00:00 -2,2 -3,1 -1,2 0,5 1,4 5,2 21 12 33 18 ENE 0,2 0 0,0
12.12.2018 22:00:00 -2,3 -3,2 -1,3 0,5 1,4 5,2 20 11 39 21 ENE 0,7 0 0,0
12.12.2018 21:00:00 -2,4 -3,5 -1,3 0,5 1,4 5,2 24 13 46 25 E 10 0 0,0
12.12.2018 20:00:00 -2,3 -3,4 -1,3 0,5 1,4 5,2 21 12 36 19 ENE 13 0 0,0
12.12.2018 19:00:00 -2,4 -3,5 -1,3 0,5 1,4 5,2 24 13 37 20 ENE 12 0 0,0
12.12.2018 18:00:00 -2,5 -3,8 -1,3 0,5 1,4 5,2 17 9 31 17 ENE 18 0 0,0
12.12.2018 17:00:00 -2,5 -3,8 -1,3 0,5 1,4 5,2 21 11 37 20 ENE 22 0 0,0
12.12.2018 16:00:00 -2,5 -3,7 -1,2 0,5 1,4 5,2 21 12 37 20 NE 13 0 0,0
12.12.2018 15:00:00 -2,3 -3,9 -1,1 0,5 1,4 5,2 22 12 32 17 NE 22 6 0,0
12.12.2018 14:00:00 -2,2 -3,7 -1,0 0,5 1,4 5,2 15 8 25 13 NE 21 17 0,0
12.12.2018 13:00:00 -1,9 -3,3 -0,3 0,5 1,4 5,2 12 7 23 13 NNE 18 10 0,0
12.12.2018 12:00:00 -2,0 -3,1 -0,9 0,5 1,4 5,2 14 8 27 14 NE 15 0 0,0
12.12.2018 11:00:00 -2,3 -3,3 -1,9 0,5 1,4 5,2 14 8 21 12 NNE 6 13 0,0
12.12.2018 10:00:00 -2,6 -3,7 -2,1 0,5 1,4 5,2 15 8 20 11 NNE 7 10 0,0
12.12.2018 09:00:00 -2,7 -3,2 -1,8 0,5 1,4 5,2 16 8 21 11 NNE 5 0 0,0
12.12.2018 08:00:00 -2,9 -3,7 -1,7 0,5 1,4 5,2 14 8 26 14 N 22 0 0,2
12.12.2018 07:00:00 -2,4 -2,9 -1,5 0,5 1,4 5,2 8 4 20 11 N 0,7 0 0,1
12.12.2018 06:00:00 -2,4 -2,8 -1,4 0,5 1,4 5,3 13 7 21 11 N 0,7 0 0,0
12.12.2018 05:00:00 -2,4 -2,9 -1,3 0,5 1,4 5,3 15 8 25 14 N 10 0 0,0
12.12.2018 04:00:00 -2,1 -2,4 -1,2 0,5 1,4 5,3 18 10 35 19 N 0,4 0 0,0
12.12.2018 03:00:00 -1,9 -2,4 -1,1 0,5 1,4 5,3 24 13 36 19 N 7 0 0,0
12.12.2018 02:00:00 -1,7 -2,1 -0,9 0,5 1,4 5,3 22 12 37 20 N 0,6 0 0,0
12.12.2018 01:00:00 -1,5 -1,8 -0,8 0,5 1,4 5,3 23 13 37 20 N 0,5 0 0,0
12.12.2018 00:00:00 -1,2 -1,5 -0,7 0,5 1,4 5,3 23 13 36 19 N 0,1 0 0,0
11.12.2018 23:00:00 -1,1 -1,4 -0,7 0,5 1,5 5,3 24 13 39 21 NNW 0,4 0 0,0
11.12.2018 22:00:00 -1,1 -1,4 -0,5 0,5 1,5 5,3 26 14 40 22 NNW 1,3 0 0,0
11.12.2018 21:00:00 -0,9 -1,1 -0,5 0,5 1,5 5,3 23 12 44 24 NNW 0,2 0 0,2
11.12.2018 20:00:00 -0,7 -0,9 -0,5 0,5 1,5 5,3 29 16 47 25 NW 0,1 0 0,4
11.12.2018 19:00:00 -0,7 -0,9 -0,5 0,5 1,5 5,3 33 18 46 25 NW 0,4 0 0,1
11.12.2018 18:00:00 -0,9 -1,3 -0,7 0,5 1,5 5,3 24 13 39 21 NW 0,2 0 0,4
11.12.2018 17:00:00 -0,8 -1,1 -0,6 0,5 1,5 5,3 26 14 38 20 NW 1,6 0 0,2
11.12.2018 16:00:00 -0,8 -1,1 -0,5 0,5 1,5 5,3 28 15 44 24 NW 5 0 0,1
11.12.2018 15:00:00 -1,1 -1,5 -0,4 0,5 1,5 5,3 29 16 44 24 NW 3,7 0 0,3
11.12.2018 14:00:00 -1,0 -1,3 -0,3 0,6 1,5 5,3 29 15 49 27 NW 1,3 0 0,1
11.12.2018 13:00:00 -0,9 -1,1 -0,1 0,6 1,5 5,3 30 16 50 27 NW 0,9 0 0,1
11.12.2018 12:00:00 -1,0 -1,5 -0,2 0,6 1,5 5,3 35 19 52 28 NW 4,4 0 0,6
11.12.2018 11:00:00 -1,0 -1,2 -0,3 0,5 1,5 5,3 28 15 48 26 NW 0,5 0 0,3
11.12.2018 10:00:00 -1,2 -1,5 -0,8 0,5 1,5 5,3 27 15 54 29 NW 0,1 0 0,7
11.12.2018 09:00:00 -1,2 -1,6 -1,0 0,5 1,5 5,3 37 20 64 35 NW 0,8 0 0,1
11.12.2018 08:00:00 -1,3 -1,9 -1,2 0,5 1,5 5,3 39 21 63 34 NW 14 0 0,0
11.12.2018 07:00:00 -1,3 -1,9 -1,1 0,5 1,5 5,4 37 20 60 32 NW 16 0 0,0
11.12.2018 06:00:00 -1,3 -1,8 -1,1 0,5 1,6 5,4 37 20 58 31 NW 7 0 0,0
11.12.2018 05:00:00 -1,2 -1,8 -1,0 0,5 1,6 5,4 36 19 64 35 NW 10 0 0,0
11.12.2018 04:00:00 -1,2 -1,7 -1,0 0,5 1,6 5,4 40 22 64 35 NW 7 0 0,2
11.12.2018 03:00:00 -1,2 -1,6 -1,1 0,5 1,6 5,4 36 20 72 39 NW 10 0 0,0
11.12.2018 02:00:00 -1,2 -1,9 -1,1 0,5 1,6 5,4 43 23 65 35 NW 16 0 0,0
11.12.2018 01:00:00 -1,1 -1,5 -0,9 0,6 1,6 5,4 41 22 72 39 NW 2,4 0 0,0
11.12.2018 00:00:00 -1,0 -1,3 -1,0 0,6 1,6 5,4 42 23 69 37 NW 7 0 0,0
10.12.2018 23:00:00 -1,1 -1,5 -1,0 0,5 1,6 5,4 43 23 70 38 NW 12 0 1,2
10.12.2018 22:00:00 -1,2 -1,5 -1,1 0,5 1,6 5,4 38 20 68 37 NW 0,4 0 0,1
10.12.2018 21:00:00 -1,2 -1,6 -1,2 0,5 1,6 5,4 35 19 59 32 NW 2,6 0 0,5
10.12.2018 20:00:00 -1,2 -1,6 -1,1 0,5 1,6 5,4 39 21 61 33 NW 5 0 0,7
10.12.2018 19:00:00 -1,5 -2,3 -1,6 0,5 1,6 5,4 31 17 71 38 WNW 18 0 0,0
10.12.2018 18:00:00 -1,4 -2,2 -1,5 0,5 1,6 5,4 42 23 72 39 NW 14 0 0,0
10.12.2018 17:00:00 -1,2 -2,1 -1,5 0,5 1,6 5,4 35 19 72 39 WNW 18 0 0,0
10.12.2018 16:00:00 -1,3 -2,4 -1,6 0,6 1,6 5,4 37 20 65 35 WNW 24 0 0,0
10.12.2018 15:00:00 -1,1 -1,7 -1,3 0,6 1,6 5,4 33 18 61 33 WNW 12 0 0,0
10.12.2018 14:00:00 -1,2 -1,8 -1,1 0,6 1,6 5,4 39 21 70 38 WNW 13 0 1,2
10.12.2018 13:00:00 -1,0 -1,4 -1,0 0,6 1,6 5,4 33 18 64 34 WNW 1,9 0 0,3
10.12.2018 12:00:00 -0,8 -1,6 -0,7 0,6 1,6 5,4 37 20 61 33 WNW 26 0 0,0
10.12.2018 11:00:00 -1,0 -1,8 -1,0 0,5 1,6 5,4 39 21 64 35 WNW 23 0 0,3
10.12.2018 10:00:00 -1,1 -2,0 -1,2 0,5 1,6 5,4 35 19 61 33 WNW 19 0 0,0
10.12.2018 09:00:00 -1,1 -2,1 -1,3 0,4 1,6 5,4 39 21 64 35 WNW 27 0 0,0
10.12.2018 08:00:00 -1,2 -2,0 -1,4 0,4 1,6 5,4 41 22 67 36 WNW 24 0 0,3
10.12.2018 07:00:00 -1,0 -2,1 -1,1 0,4 1,6 5,4 36 19 70 38 WNW 32 0 0,0
10.12.2018 06:00:00 -0,8 -1,8 -1,0 0,4 1,7 5,4 39 21 63 34 WNW 31 0 0,0
10.12.2018 05:00:00 -0,6 -1,5 -0,8 0,4 1,7 5,4 35 19 67 36 WNW 13 0 0,1
10.12.2018 04:00:00 -0,6 -1,6 -0,8 0,4 1,7 5,4 36 19 69 37 WNW 29 0 0,0
10.12.2018 03:00:00 -0,4 -1,4 -0,6 0,4 1,7 5,4 34 19 67 36 WNW 25 0 0,0
10.12.2018 02:00:00 -0,2 -0,8 -0,3 0,4 1,7 5,4 37 20 68 37 WNW 20 0 0,0
10.12.2018 01:00:00 -0,1 -1,0 -0,3 0,4 1,8 5,4 36 19 64 35 WNW 20 0 0,0
10.12.2018 00:00:00 0,0 -0,7 -0,1 0,4 1,8 5,4 39 21 79 42 WNW 16 0 0,0
09.12.2018 23:00:00 0,1 -1,1 -0,1 0,4 1,8 5,4 47 26 77 42 NW 31 0 0,0
09.12.2018 22:00:00 0,4 0,0 0,2 0,4 1,9 5,4 43 23 75 40 NW 12 0 0,0
09.12.2018 21:00:00 0,5 0,0 0,3 0,4 2,0 5,4 48 26 80 43 NW 16 0 1,3
09.12.2018 20:00:00 0,6 0,3 0,1 0,5 2,0 5,4 40 21 72 39 NW 2,5 0 0,1
09.12.2018 19:00:00 1,4 1,2 0,9 0,5 2,1 5,4 43 23 72 39 NW 0,8 0 0,3
09.12.2018 18:00:00 1,3 1,0 0,6 0,5 2,2 5,4 37 20 72 39 WNW 4,5 0 0,3
09.12.2018 17:00:00 0,9 0,7 0,3 0,6 2,2 5,4 30 16 66 36 WNW 0,3 0 0,1
09.12.2018 16:00:00 0,4 0,2 0,0 0,6 2,3 5,4 34 19 50 27 WNW 0,3 0 0,0
09.12.2018 15:00:00 -0,1 -0,2 -0,1 0,7 2,5 5,4 28 15 44 24 W 0,2 0 0,4
09.12.2018 14:00:00 -0,4 -0,6 -0,4 0,7 2,6 5,4 26 14 45 24 W 0,8 0 3,5
09.12.2018 13:00:00 -0,2 -0,4 -0,1 1,0 2,7 5,5 29 16 47 25 WNW 0,8 0 3,0
09.12.2018 12:00:00 2,3 2,3 2,2 2,3 2,6 5,5 37 20 74 40 W 0,1 0 2,0
09.12.2018 11:00:00 2,3 2,1 2,3 2,3 2,6 5,5 47 26 73 39 W 0,2 0 0,9
09.12.2018 10:00:00 2,3 2,1 2,2 1,9 2,6 5,5 45 25 79 42 W 1,1 0 1,4
09.12.2018 09:00:00 1,9 1,7 1,7 1,6 2,7 5,5 45 24 77 42 W 0,3 0 2,1
09.12.2018 08:00:00 1,7 1,5 1,3 1,3 2,8 5,6 49 27 72 39 W 0,2 0 3,9
09.12.2018 07:00:00 1,0 0,9 0,2 1,9 2,9 5,6 44 24 74 40 W 0,4 0 1,5

tt = temperature
td = dewpoint
tt 5cm = temperature 5cm
tt -5cm = temperature -5cm
tt -20cm = temperature -20cm
tt -100cm = temperature -100cm
ff = wind speed
fx = gusts
dd = wind direction
vv = visibility
sd = sunshine duration
rr = precipitation

Next stations